sensor_id;sensor_type;location;lat;lon;timestamp;pressure;altitude;pressure_sealevel;temperature
78961;BMP280;68362;45.970;12.646;2023-07-31T00:00:27;100925.88;;;22.01
78961;BMP280;68362;45.970;12.646;2023-07-31T00:01:49;100926.28;;;22.08
78961;BMP280;68362;45.970;12.646;2023-07-31T00:02:52;100927.69;;;22.19
78961;BMP280;68362;45.970;12.646;2023-07-31T00:03:55;100921.16;;;22.26
78961;BMP280;68362;45.970;12.646;2023-07-31T00:04:57;100921.34;;;22.15
78961;BMP280;68362;45.970;12.646;2023-07-31T00:05:59;100926.50;;;22.26
78961;BMP280;68362;45.970;12.646;2023-07-31T00:07:02;100917.19;;;22.09
78961;BMP280;68362;45.970;12.646;2023-07-31T00:08:06;100925.28;;;22.04
78961;BMP280;68362;45.970;12.646;2023-07-31T00:09:08;100920.34;;;22.11
78961;BMP280;68362;45.970;12.646;2023-07-31T00:10:10;100914.88;;;22.03
78961;BMP280;68362;45.970;12.646;2023-07-31T00:11:12;100911.03;;;21.95
78961;BMP280;68362;45.970;12.646;2023-07-31T00:12:14;100922.31;;;21.92
78961;BMP280;68362;45.970;12.646;2023-07-31T00:13:17;100911.56;;;21.78
78961;BMP280;68362;45.970;12.646;2023-07-31T00:14:19;100915.94;;;21.88
78961;BMP280;68362;45.970;12.646;2023-07-31T00:15:21;100920.09;;;21.94
78961;BMP280;68362;45.970;12.646;2023-07-31T00:16:23;100915.09;;;22.06
78961;BMP280;68362;45.970;12.646;2023-07-31T00:17:25;100917.75;;;22.06
78961;BMP280;68362;45.970;12.646;2023-07-31T00:18:28;100920.94;;;22.08
78961;BMP280;68362;45.970;12.646;2023-07-31T00:19:30;100923.09;;;22.06
78961;BMP280;68362;45.970;12.646;2023-07-31T00:20:32;100920.28;;;21.84
78961;BMP280;68362;45.970;12.646;2023-07-31T00:21:34;100923.94;;;21.55
78961;BMP280;68362;45.970;12.646;2023-07-31T00:22:36;100928.38;;;21.46
78961;BMP280;68362;45.970;12.646;2023-07-31T00:23:38;100926.34;;;21.57
78961;BMP280;68362;45.970;12.646;2023-07-31T00:24:40;100927.41;;;21.75
78961;BMP280;68362;45.970;12.646;2023-07-31T00:25:42;100920.75;;;21.72
78961;BMP280;68362;45.970;12.646;2023-07-31T00:26:45;100913.38;;;21.83
78961;BMP280;68362;45.970;12.646;2023-07-31T00:27:47;100917.09;;;21.82
78961;BMP280;68362;45.970;12.646;2023-07-31T00:28:49;100916.97;;;21.92
78961;BMP280;68362;45.970;12.646;2023-07-31T00:29:51;100916.78;;;22.02
78961;BMP280;68362;45.970;12.646;2023-07-31T00:30:53;100918.75;;;22.10
78961;BMP280;68362;45.970;12.646;2023-07-31T00:31:55;100919.28;;;22.12
78961;BMP280;68362;45.970;12.646;2023-07-31T00:32:57;100924.09;;;22.10
78961;BMP280;68362;45.970;12.646;2023-07-31T00:33:59;100916.38;;;22.09
78961;BMP280;68362;45.970;12.646;2023-07-31T00:35:01;100924.66;;;21.93
78961;BMP280;68362;45.970;12.646;2023-07-31T00:36:04;100918.53;;;21.93
78961;BMP280;68362;45.970;12.646;2023-07-31T00:37:06;100915.00;;;21.79
78961;BMP280;68362;45.970;12.646;2023-07-31T00:38:08;100920.03;;;21.67
78961;BMP280;68362;45.970;12.646;2023-07-31T00:39:10;100922.44;;;21.49
78961;BMP280;68362;45.970;12.646;2023-07-31T00:40:13;100920.59;;;21.31
78961;BMP280;68362;45.970;12.646;2023-07-31T00:41:16;100915.56;;;21.43
78961;BMP280;68362;45.970;12.646;2023-07-31T00:42:18;100921.72;;;21.44
78961;BMP280;68362;45.970;12.646;2023-07-31T00:43:20;100922.88;;;21.38
78961;BMP280;68362;45.970;12.646;2023-07-31T00:44:22;100924.00;;;21.50
78961;BMP280;68362;45.970;12.646;2023-07-31T00:45:24;100921.91;;;21.66
78961;BMP280;68362;45.970;12.646;2023-07-31T00:46:28;100919.94;;;21.72
78961;BMP280;68362;45.970;12.646;2023-07-31T00:47:31;100922.63;;;21.72
78961;BMP280;68362;45.970;12.646;2023-07-31T00:48:37;100926.63;;;21.74
78961;BMP280;68362;45.970;12.646;2023-07-31T00:49:39;100919.59;;;21.78
78961;BMP280;68362;45.970;12.646;2023-07-31T00:50:41;100928.06;;;21.67
78961;BMP280;68362;45.970;12.646;2023-07-31T00:51:44;100934.69;;;21.69
78961;BMP280;68362;45.970;12.646;2023-07-31T00:52:46;100935.84;;;21.44
78961;BMP280;68362;45.970;12.646;2023-07-31T00:53:48;100931.59;;;21.43
78961;BMP280;68362;45.970;12.646;2023-07-31T00:54:51;100931.13;;;21.60
78961;BMP280;68362;45.970;12.646;2023-07-31T00:55:53;100937.31;;;21.74
78961;BMP280;68362;45.970;12.646;2023-07-31T00:56:56;100936.13;;;21.61
78961;BMP280;68362;45.970;12.646;2023-07-31T00:57:58;100933.72;;;21.79
78961;BMP280;68362;45.970;12.646;2023-07-31T00:59:00;100940.88;;;21.83
78961;BMP280;68362;45.970;12.646;2023-07-31T01:00:02;100943.25;;;21.85
78961;BMP280;68362;45.970;12.646;2023-07-31T01:01:05;100935.94;;;21.90
78961;BMP280;68362;45.970;12.646;2023-07-31T01:02:07;100935.81;;;21.49
78961;BMP280;68362;45.970;12.646;2023-07-31T01:03:11;100947.19;;;20.98
78961;BMP280;68362;45.970;12.646;2023-07-31T01:04:13;100943.69;;;20.98
78961;BMP280;68362;45.970;12.646;2023-07-31T01:05:17;100953.09;;;20.95
78961;BMP280;68362;45.970;12.646;2023-07-31T01:06:44;100949.19;;;21.07
78961;BMP280;68362;45.970;12.646;2023-07-31T01:07:57;100945.44;;;21.08
78961;BMP280;68362;45.970;12.646;2023-07-31T01:10:25;100948.28;;;21.35
78961;BMP280;68362;45.970;12.646;2023-07-31T01:11:31;100947.44;;;21.40
78961;BMP280;68362;45.970;12.646;2023-07-31T01:12:36;100945.38;;;21.50
78961;BMP280;68362;45.970;12.646;2023-07-31T01:13:40;100941.94;;;21.50
78961;BMP280;68362;45.970;12.646;2023-07-31T01:16:03;100941.41;;;21.67
78961;BMP280;68362;45.970;12.646;2023-07-31T01:17:05;100938.66;;;21.72
78961;BMP280;68362;45.970;12.646;2023-07-31T01:18:07;100937.25;;;21.60
78961;BMP280;68362;45.970;12.646;2023-07-31T01:19:11;100934.63;;;21.55
78961;BMP280;68362;45.970;12.646;2023-07-31T01:20:32;100939.78;;;21.52
78961;BMP280;68362;45.970;12.646;2023-07-31T01:25:16;100929.22;;;21.42
78961;BMP280;68362;45.970;12.646;2023-07-31T01:26:26;100934.00;;;21.64
78961;BMP280;68362;45.970;12.646;2023-07-31T01:27:32;100939.25;;;21.69
78961;BMP280;68362;45.970;12.646;2023-07-31T01:29:07;100930.13;;;21.70
78961;BMP280;68362;45.970;12.646;2023-07-31T01:30:16;100931.22;;;21.69
78961;BMP280;68362;45.970;12.646;2023-07-31T01:31:23;100933.50;;;21.75
78961;BMP280;68362;45.970;12.646;2023-07-31T01:32:28;100927.97;;;21.72
78961;BMP280;68362;45.970;12.646;2023-07-31T01:33:30;100934.69;;;21.50
78961;BMP280;68362;45.970;12.646;2023-07-31T01:34:34;100923.16;;;21.55
78961;BMP280;68362;45.970;12.646;2023-07-31T01:35:37;100927.06;;;21.63
78961;BMP280;68362;45.970;12.646;2023-07-31T01:36:39;100931.03;;;21.46
78961;BMP280;68362;45.970;12.646;2023-07-31T01:37:42;100925.63;;;21.32
78961;BMP280;68362;45.970;12.646;2023-07-31T01:38:44;100930.50;;;21.44
78961;BMP280;68362;45.970;12.646;2023-07-31T01:39:46;100929.88;;;21.34
78961;BMP280;68362;45.970;12.646;2023-07-31T01:40:53;100931.75;;;20.95
78961;BMP280;68362;45.970;12.646;2023-07-31T01:41:55;100929.81;;;20.77
78961;BMP280;68362;45.970;12.646;2023-07-31T01:42:57;100927.22;;;20.72
78961;BMP280;68362;45.970;12.646;2023-07-31T01:43:59;100924.34;;;20.87
78961;BMP280;68362;45.970;12.646;2023-07-31T01:45:01;100922.97;;;21.14
78961;BMP280;68362;45.970;12.646;2023-07-31T01:46:03;100932.09;;;21.26
78961;BMP280;68362;45.970;12.646;2023-07-31T01:47:06;100936.75;;;21.21
78961;BMP280;68362;45.970;12.646;2023-07-31T01:48:08;100940.13;;;21.26
78961;BMP280;68362;45.970;12.646;2023-07-31T01:49:10;100931.03;;;21.46
78961;BMP280;68362;45.970;12.646;2023-07-31T01:50:12;100937.59;;;21.54
78961;BMP280;68362;45.970;12.646;2023-07-31T01:51:14;100938.91;;;21.19
78961;BMP280;68362;45.970;12.646;2023-07-31T01:52:16;100939.56;;;21.11
78961;BMP280;68362;45.970;12.646;2023-07-31T01:53:18;100938.91;;;21.38
78961;BMP280;68362;45.970;12.646;2023-07-31T01:54:20;100934.94;;;21.35
78961;BMP280;68362;45.970;12.646;2023-07-31T01:55:23;100942.81;;;20.60
78961;BMP280;68362;45.970;12.646;2023-07-31T01:56:25;100945.53;;;20.79
78961;BMP280;68362;45.970;12.646;2023-07-31T01:57:27;100943.06;;;21.06
78961;BMP280;68362;45.970;12.646;2023-07-31T01:58:29;100939.66;;;21.00
78961;BMP280;68362;45.970;12.646;2023-07-31T01:59:32;100940.47;;;20.77
78961;BMP280;68362;45.970;12.646;2023-07-31T02:00:34;100945.16;;;20.66
78961;BMP280;68362;45.970;12.646;2023-07-31T02:01:36;100941.66;;;20.42
78961;BMP280;68362;45.970;12.646;2023-07-31T02:02:38;100934.72;;;20.70
78961;BMP280;68362;45.970;12.646;2023-07-31T02:03:40;100940.91;;;20.36
78961;BMP280;68362;45.970;12.646;2023-07-31T02:04:44;100935.47;;;20.23
78961;BMP280;68362;45.970;12.646;2023-07-31T02:05:47;100937.72;;;20.34
78961;BMP280;68362;45.970;12.646;2023-07-31T02:06:49;100933.75;;;20.08
78961;BMP280;68362;45.970;12.646;2023-07-31T02:07:52;100930.81;;;20.33
78961;BMP280;68362;45.970;12.646;2023-07-31T02:08:54;100937.09;;;20.19
78961;BMP280;68362;45.970;12.646;2023-07-31T02:09:56;100939.69;;;19.95
78961;BMP280;68362;45.970;12.646;2023-07-31T02:10:58;100937.59;;;19.87
78961;BMP280;68362;45.970;12.646;2023-07-31T02:12:00;100940.31;;;20.16
78961;BMP280;68362;45.970;12.646;2023-07-31T02:13:02;100937.56;;;19.97
78961;BMP280;68362;45.970;12.646;2023-07-31T02:14:05;100930.81;;;20.33
78961;BMP280;68362;45.970;12.646;2023-07-31T02:15:07;100935.06;;;20.34
78961;BMP280;68362;45.970;12.646;2023-07-31T02:16:10;100934.72;;;20.12
78961;BMP280;68362;45.970;12.646;2023-07-31T02:17:12;100933.34;;;20.20
78961;BMP280;68362;45.970;12.646;2023-07-31T02:18:14;100941.38;;;20.44
78961;BMP280;68362;45.970;12.646;2023-07-31T02:19:16;100947.06;;;20.08
78961;BMP280;68362;45.970;12.646;2023-07-31T02:20:18;100943.72;;;20.21
78961;BMP280;68362;45.970;12.646;2023-07-31T02:21:20;100939.31;;;20.35
78961;BMP280;68362;45.970;12.646;2023-07-31T02:22:22;100942.00;;;20.35
78961;BMP280;68362;45.970;12.646;2023-07-31T02:23:24;100944.44;;;20.03
78961;BMP280;68362;45.970;12.646;2023-07-31T02:24:28;100939.34;;;20.01
78961;BMP280;68362;45.970;12.646;2023-07-31T02:25:30;100939.13;;;19.98
78961;BMP280;68362;45.970;12.646;2023-07-31T02:26:32;100942.47;;;20.14
78961;BMP280;68362;45.970;12.646;2023-07-31T02:27:34;100941.75;;;20.03
78961;BMP280;68362;45.970;12.646;2023-07-31T02:28:36;100940.72;;;19.99
78961;BMP280;68362;45.970;12.646;2023-07-31T02:29:39;100946.00;;;20.38
78961;BMP280;68362;45.970;12.646;2023-07-31T02:30:44;100942.16;;;20.49
78961;BMP280;68362;45.970;12.646;2023-07-31T02:31:46;100939.28;;;20.64
78961;BMP280;68362;45.970;12.646;2023-07-31T02:32:49;100942.88;;;20.55
78961;BMP280;68362;45.970;12.646;2023-07-31T02:33:51;100942.13;;;20.73
78961;BMP280;68362;45.970;12.646;2023-07-31T02:34:53;100935.44;;;20.76
78961;BMP280;68362;45.970;12.646;2023-07-31T02:35:55;100936.13;;;20.62
78961;BMP280;68362;45.970;12.646;2023-07-31T02:36:58;100932.19;;;20.79
78961;BMP280;68362;45.970;12.646;2023-07-31T02:38:00;100926.16;;;20.92
78961;BMP280;68362;45.970;12.646;2023-07-31T02:39:02;100935.88;;;20.83
78961;BMP280;68362;45.970;12.646;2023-07-31T02:40:04;100934.16;;;20.49
78961;BMP280;68362;45.970;12.646;2023-07-31T02:41:07;100934.88;;;20.55
78961;BMP280;68362;45.970;12.646;2023-07-31T02:42:09;100934.38;;;20.53
78961;BMP280;68362;45.970;12.646;2023-07-31T02:43:11;100936.59;;;20.69
78961;BMP280;68362;45.970;12.646;2023-07-31T02:44:13;100933.78;;;20.80
78961;BMP280;68362;45.970;12.646;2023-07-31T02:45:16;100927.28;;;20.67
78961;BMP280;68362;45.970;12.646;2023-07-31T02:46:19;100928.28;;;20.71
78961;BMP280;68362;45.970;12.646;2023-07-31T02:47:22;100928.56;;;20.46
78961;BMP280;68362;45.970;12.646;2023-07-31T02:48:24;100920.06;;;20.15
78961;BMP280;68362;45.970;12.646;2023-07-31T02:49:26;100927.94;;;20.30
78961;BMP280;68362;45.970;12.646;2023-07-31T02:50:29;100926.09;;;20.25
78961;BMP280;68362;45.970;12.646;2023-07-31T02:51:31;100927.69;;;20.26
78961;BMP280;68362;45.970;12.646;2023-07-31T02:52:33;100932.81;;;20.47
78961;BMP280;68362;45.970;12.646;2023-07-31T02:53:35;100930.59;;;20.54
78961;BMP280;68362;45.970;12.646;2023-07-31T02:54:38;100928.84;;;20.68
78961;BMP280;68362;45.970;12.646;2023-07-31T02:55:40;100917.41;;;20.86
78961;BMP280;68362;45.970;12.646;2023-07-31T02:56:43;100921.06;;;20.48
78961;BMP280;68362;45.970;12.646;2023-07-31T02:57:45;100919.91;;;20.30
78961;BMP280;68362;45.970;12.646;2023-07-31T02:58:47;100922.34;;;20.55
78961;BMP280;68362;45.970;12.646;2023-07-31T02:59:49;100927.56;;;20.36
78961;BMP280;68362;45.970;12.646;2023-07-31T03:00:51;100925.56;;;20.23
78961;BMP280;68362;45.970;12.646;2023-07-31T03:01:54;100929.16;;;20.08
78961;BMP280;68362;45.970;12.646;2023-07-31T03:02:56;100932.47;;;20.00
78961;BMP280;68362;45.970;12.646;2023-07-31T03:03:58;100936.97;;;20.34
78961;BMP280;68362;45.970;12.646;2023-07-31T03:05:00;100929.41;;;19.78
78961;BMP280;68362;45.970;12.646;2023-07-31T03:06:02;100929.25;;;19.98
78961;BMP280;68362;45.970;12.646;2023-07-31T03:07:05;100934.56;;;19.98
78961;BMP280;68362;45.970;12.646;2023-07-31T03:08:07;100935.19;;;19.90
78961;BMP280;68362;45.970;12.646;2023-07-31T03:09:09;100933.75;;;19.69
78961;BMP280;68362;45.970;12.646;2023-07-31T03:10:11;100939.34;;;19.72
78961;BMP280;68362;45.970;12.646;2023-07-31T03:11:13;100937.44;;;20.07
78961;BMP280;68362;45.970;12.646;2023-07-31T03:12:15;100931.97;;;19.93
78961;BMP280;68362;45.970;12.646;2023-07-31T03:13:17;100931.91;;;19.69
78961;BMP280;68362;45.970;12.646;2023-07-31T03:14:20;100931.56;;;19.76
78961;BMP280;68362;45.970;12.646;2023-07-31T03:15:22;100936.22;;;19.55
78961;BMP280;68362;45.970;12.646;2023-07-31T03:16:24;100935.13;;;19.61
78961;BMP280;68362;45.970;12.646;2023-07-31T03:17:26;100933.09;;;19.43
78961;BMP280;68362;45.970;12.646;2023-07-31T03:18:28;100930.25;;;19.34
78961;BMP280;68362;45.970;12.646;2023-07-31T03:19:31;100931.59;;;19.27
78961;BMP280;68362;45.970;12.646;2023-07-31T03:20:33;100928.47;;;19.09
78961;BMP280;68362;45.970;12.646;2023-07-31T03:21:35;100926.38;;;19.56
78961;BMP280;68362;45.970;12.646;2023-07-31T03:22:38;100929.38;;;19.44
78961;BMP280;68362;45.970;12.646;2023-07-31T03:23:40;100926.78;;;19.29
78961;BMP280;68362;45.970;12.646;2023-07-31T03:24:42;100927.16;;;19.61
78961;BMP280;68362;45.970;12.646;2023-07-31T03:26:01;100933.16;;;19.38
78961;BMP280;68362;45.970;12.646;2023-07-31T03:27:05;100935.63;;;19.24
78961;BMP280;68362;45.970;12.646;2023-07-31T03:28:07;100930.97;;;19.40
78961;BMP280;68362;45.970;12.646;2023-07-31T03:29:09;100934.06;;;19.57
78961;BMP280;68362;45.970;12.646;2023-07-31T03:30:11;100929.47;;;19.73
78961;BMP280;68362;45.970;12.646;2023-07-31T03:31:14;100936.06;;;19.80
78961;BMP280;68362;45.970;12.646;2023-07-31T03:32:16;100934.63;;;19.54
78961;BMP280;68362;45.970;12.646;2023-07-31T03:33:18;100931.03;;;19.35
78961;BMP280;68362;45.970;12.646;2023-07-31T03:34:20;100939.59;;;19.27
78961;BMP280;68362;45.970;12.646;2023-07-31T03:35:22;100939.41;;;19.57
78961;BMP280;68362;45.970;12.646;2023-07-31T03:36:25;100941.25;;;19.62
78961;BMP280;68362;45.970;12.646;2023-07-31T03:37:27;100942.25;;;19.27
78961;BMP280;68362;45.970;12.646;2023-07-31T03:38:29;100944.09;;;19.31
78961;BMP280;68362;45.970;12.646;2023-07-31T03:39:31;100944.03;;;19.41
78961;BMP280;68362;45.970;12.646;2023-07-31T03:40:33;100941.25;;;19.62
78961;BMP280;68362;45.970;12.646;2023-07-31T03:41:36;100945.66;;;19.81
78961;BMP280;68362;45.970;12.646;2023-07-31T03:42:38;100940.53;;;19.51
78961;BMP280;68362;45.970;12.646;2023-07-31T03:43:40;100943.81;;;19.77
78961;BMP280;68362;45.970;12.646;2023-07-31T03:44:42;100945.16;;;19.74
78961;BMP280;68362;45.970;12.646;2023-07-31T03:45:44;100944.28;;;19.40
78961;BMP280;68362;45.970;12.646;2023-07-31T03:46:46;100948.19;;;19.63
78961;BMP280;68362;45.970;12.646;2023-07-31T03:47:49;100933.91;;;19.82
78961;BMP280;68362;45.970;12.646;2023-07-31T03:48:51;100946.13;;;19.89
78961;BMP280;68362;45.970;12.646;2023-07-31T03:49:53;100936.00;;;19.86
78961;BMP280;68362;45.970;12.646;2023-07-31T03:50:55;100938.66;;;19.91
78961;BMP280;68362;45.970;12.646;2023-07-31T03:51:57;100941.41;;;20.09
78961;BMP280;68362;45.970;12.646;2023-07-31T03:53:00;100932.03;;;20.17
78961;BMP280;68362;45.970;12.646;2023-07-31T03:54:02;100934.91;;;20.26
78961;BMP280;68362;45.970;12.646;2023-07-31T03:55:04;100937.09;;;20.19
78961;BMP280;68362;45.970;12.646;2023-07-31T03:56:07;100942.09;;;19.96
78961;BMP280;68362;45.970;12.646;2023-07-31T03:57:08;100939.56;;;19.81
78961;BMP280;68362;45.970;12.646;2023-07-31T03:58:10;100937.00;;;19.95
78961;BMP280;68362;45.970;12.646;2023-07-31T03:59:13;100937.81;;;19.95
78961;BMP280;68362;45.970;12.646;2023-07-31T04:00:15;100936.31;;;20.13
78961;BMP280;68362;45.970;12.646;2023-07-31T04:01:17;100941.47;;;19.70
78961;BMP280;68362;45.970;12.646;2023-07-31T04:02:21;100941.44;;;19.75
78961;BMP280;68362;45.970;12.646;2023-07-31T04:03:23;100945.78;;;20.00
78961;BMP280;68362;45.970;12.646;2023-07-31T04:04:25;100935.28;;;20.09
78961;BMP280;68362;45.970;12.646;2023-07-31T04:05:30;100943.53;;;20.12
78961;BMP280;68362;45.970;12.646;2023-07-31T04:06:32;100943.09;;;19.66
78961;BMP280;68362;45.970;12.646;2023-07-31T04:07:34;100942.69;;;19.83
78961;BMP280;68362;45.970;12.646;2023-07-31T04:08:36;100937.69;;;19.76
78961;BMP280;68362;45.970;12.646;2023-07-31T04:09:38;100946.84;;;20.04
78961;BMP280;68362;45.970;12.646;2023-07-31T04:10:40;100945.72;;;19.71
78961;BMP280;68362;45.970;12.646;2023-07-31T04:11:42;100942.66;;;19.49
78961;BMP280;68362;45.970;12.646;2023-07-31T04:12:45;100941.88;;;19.93
78961;BMP280;68362;45.970;12.646;2023-07-31T04:13:47;100942.13;;;19.86
78961;BMP280;68362;45.970;12.646;2023-07-31T04:14:49;100941.09;;;19.87
78961;BMP280;68362;45.970;12.646;2023-07-31T04:15:52;100948.69;;;20.04
78961;BMP280;68362;45.970;12.646;2023-07-31T04:16:54;100947.31;;;20.06
78961;BMP280;68362;45.970;12.646;2023-07-31T04:17:56;100950.94;;;20.21
78961;BMP280;68362;45.970;12.646;2023-07-31T04:18:58;100943.16;;;20.24
78961;BMP280;68362;45.970;12.646;2023-07-31T04:20:00;100948.41;;;20.34
78961;BMP280;68362;45.970;12.646;2023-07-31T04:21:03;100951.03;;;20.10
78961;BMP280;68362;45.970;12.646;2023-07-31T04:22:05;100955.81;;;19.74
78961;BMP280;68362;45.970;12.646;2023-07-31T04:23:07;100953.25;;;19.59
78961;BMP280;68362;45.970;12.646;2023-07-31T04:24:09;100949.47;;;19.70
78961;BMP280;68362;45.970;12.646;2023-07-31T04:25:11;100948.34;;;19.81
78961;BMP280;68362;45.970;12.646;2023-07-31T04:26:13;100952.88;;;20.10
78961;BMP280;68362;45.970;12.646;2023-07-31T04:27:15;100951.13;;;20.29
78961;BMP280;68362;45.970;12.646;2023-07-31T04:28:17;100952.31;;;20.13
78961;BMP280;68362;45.970;12.646;2023-07-31T04:29:20;100948.97;;;20.02
78961;BMP280;68362;45.970;12.646;2023-07-31T04:30:22;100950.25;;;20.05
78961;BMP280;68362;45.970;12.646;2023-07-31T04:31:24;100948.03;;;19.83
78961;BMP280;68362;45.970;12.646;2023-07-31T04:32:26;100951.25;;;20.19
78961;BMP280;68362;45.970;12.646;2023-07-31T04:33:29;100954.31;;;19.97
78961;BMP280;68362;45.970;12.646;2023-07-31T04:34:31;100944.41;;;20.08
78961;BMP280;68362;45.970;12.646;2023-07-31T04:35:33;100952.31;;;20.13
78961;BMP280;68362;45.970;12.646;2023-07-31T04:36:35;100952.66;;;20.06
78961;BMP280;68362;45.970;12.646;2023-07-31T04:37:38;100950.81;;;20.02
78961;BMP280;68362;45.970;12.646;2023-07-31T04:38:40;100951.53;;;20.12
78961;BMP280;68362;45.970;12.646;2023-07-31T04:39:42;100959.16;;;20.24
78961;BMP280;68362;45.970;12.646;2023-07-31T04:40:45;100954.97;;;20.13
78961;BMP280;68362;45.970;12.646;2023-07-31T04:41:47;100957.78;;;19.98
78961;BMP280;68362;45.970;12.646;2023-07-31T04:42:49;100952.66;;;20.06
78961;BMP280;68362;45.970;12.646;2023-07-31T04:43:51;100962.38;;;20.21
78961;BMP280;68362;45.970;12.646;2023-07-31T04:44:54;100962.88;;;19.94
78961;BMP280;68362;45.970;12.646;2023-07-31T04:45:56;100954.94;;;19.89
78961;BMP280;68362;45.970;12.646;2023-07-31T04:46:59;100957.75;;;20.03
78961;BMP280;68362;45.970;12.646;2023-07-31T04:48:01;100959.25;;;20.14
78961;BMP280;68362;45.970;12.646;2023-07-31T04:49:03;100963.44;;;20.25
78961;BMP280;68362;45.970;12.646;2023-07-31T04:50:06;100962.38;;;20.50
78961;BMP280;68362;45.970;12.646;2023-07-31T04:51:08;100964.22;;;20.55
78961;BMP280;68362;45.970;12.646;2023-07-31T04:52:13;100962.44;;;20.16
78961;BMP280;68362;45.970;12.646;2023-07-31T04:53:15;100966.38;;;20.53
78961;BMP280;68362;45.970;12.646;2023-07-31T04:54:18;100967.88;;;20.64
78961;BMP280;68362;45.970;12.646;2023-07-31T04:55:20;100962.41;;;20.74
78961;BMP280;68362;45.970;12.646;2023-07-31T04:56:22;100970.88;;;20.28
78961;BMP280;68362;45.970;12.646;2023-07-31T04:57:24;100962.19;;;20.12
78961;BMP280;68362;45.970;12.646;2023-07-31T04:58:26;100954.88;;;20.28
78961;BMP280;68362;45.970;12.646;2023-07-31T04:59:28;100962.88;;;20.28
78961;BMP280;68362;45.970;12.646;2023-07-31T05:00:30;100961.81;;;20.53
78961;BMP280;68362;45.970;12.646;2023-07-31T05:01:32;100957.97;;;20.64
78961;BMP280;68362;45.970;12.646;2023-07-31T05:02:35;100962.22;;;20.41
78961;BMP280;68362;45.970;12.646;2023-07-31T05:03:37;100961.78;;;20.29
78961;BMP280;68362;45.970;12.646;2023-07-31T05:04:39;100961.94;;;20.43
78961;BMP280;68362;45.970;12.646;2023-07-31T05:05:41;100954.03;;;20.57
78961;BMP280;68362;45.970;12.646;2023-07-31T05:06:44;100958.38;;;20.53
78961;BMP280;68362;45.970;12.646;2023-07-31T05:07:46;100955.28;;;20.64
78961;BMP280;68362;45.970;12.646;2023-07-31T05:08:48;100963.88;;;20.85
78961;BMP280;68362;45.970;12.646;2023-07-31T05:09:50;100961.09;;;20.95
78961;BMP280;68362;45.970;12.646;2023-07-31T05:10:52;100960.25;;;20.76
78961;BMP280;68362;45.970;12.646;2023-07-31T05:11:54;100954.22;;;20.65
78961;BMP280;68362;45.970;12.646;2023-07-31T05:12:56;100960.81;;;20.73
78961;BMP280;68362;45.970;12.646;2023-07-31T05:13:58;100957.03;;;20.98
78961;BMP280;68362;45.970;12.646;2023-07-31T05:15:01;100955.91;;;20.80
78961;BMP280;68362;45.970;12.646;2023-07-31T05:16:03;100958.50;;;20.66
78961;BMP280;68362;45.970;12.646;2023-07-31T05:17:05;100949.84;;;20.75
78961;BMP280;68362;45.970;12.646;2023-07-31T05:18:07;100959.50;;;20.94
78961;BMP280;68362;45.970;12.646;2023-07-31T05:19:10;100950.88;;;21.02
78961;BMP280;68362;45.970;12.646;2023-07-31T05:20:12;100959.97;;;21.20
78961;BMP280;68362;45.970;12.646;2023-07-31T05:21:14;100960.47;;;21.22
78961;BMP280;68362;45.970;12.646;2023-07-31T05:22:16;100955.88;;;21.28
78961;BMP280;68362;45.970;12.646;2023-07-31T05:23:18;100957.34;;;21.39
78961;BMP280;68362;45.970;12.646;2023-07-31T05:24:21;100956.13;;;21.08
78961;BMP280;68362;45.970;12.646;2023-07-31T05:25:23;100959.22;;;20.96
78961;BMP280;68362;45.970;12.646;2023-07-31T05:26:25;100962.38;;;20.98
78961;BMP280;68362;45.970;12.646;2023-07-31T05:27:27;100956.34;;;21.11
78961;BMP280;68362;45.970;12.646;2023-07-31T05:28:29;100955.00;;;21.14
78961;BMP280;68362;45.970;12.646;2023-07-31T05:29:31;100951.22;;;21.15
78961;BMP280;68362;45.970;12.646;2023-07-31T05:30:33;100961.06;;;21.38
78961;BMP280;68362;45.970;12.646;2023-07-31T05:31:36;100955.00;;;21.51
78961;BMP280;68362;45.970;12.646;2023-07-31T05:32:40;100956.22;;;21.21
78961;BMP280;68362;45.970;12.646;2023-07-31T05:33:42;100959.44;;;21.18
78961;BMP280;68362;45.970;12.646;2023-07-31T05:34:44;100964.31;;;21.54
78961;BMP280;68362;45.970;12.646;2023-07-31T05:35:46;100963.22;;;21.74
78961;BMP280;68362;45.970;12.646;2023-07-31T05:36:48;100967.50;;;21.56
78961;BMP280;68362;45.970;12.646;2023-07-31T05:37:50;100964.06;;;21.50
78961;BMP280;68362;45.970;12.646;2023-07-31T05:38:52;100955.47;;;21.72
78961;BMP280;68362;45.970;12.646;2023-07-31T05:39:55;100965.78;;;21.79
78961;BMP280;68362;45.970;12.646;2023-07-31T05:40:57;100965.09;;;21.92
78961;BMP280;68362;45.970;12.646;2023-07-31T05:41:59;100964.09;;;21.69
78961;BMP280;68362;45.970;12.646;2023-07-31T05:43:01;100965.47;;;21.67
78961;BMP280;68362;45.970;12.646;2023-07-31T05:44:04;100959.09;;;21.81
78961;BMP280;68362;45.970;12.646;2023-07-31T05:45:06;100971.13;;;21.79
78961;BMP280;68362;45.970;12.646;2023-07-31T05:46:09;100967.97;;;21.77
78961;BMP280;68362;45.970;12.646;2023-07-31T05:47:11;100964.50;;;21.95
78961;BMP280;68362;45.970;12.646;2023-07-31T05:48:13;100967.22;;;21.90
78961;BMP280;68362;45.970;12.646;2023-07-31T05:49:16;100957.41;;;22.18
78961;BMP280;68362;45.970;12.646;2023-07-31T05:50:17;100960.75;;;22.23
78961;BMP280;68362;45.970;12.646;2023-07-31T05:51:20;100955.81;;;22.31
78961;BMP280;68362;45.970;12.646;2023-07-31T05:52:22;100969.53;;;22.43
78961;BMP280;68362;45.970;12.646;2023-07-31T05:53:24;100966.53;;;22.58
78961;BMP280;68362;45.970;12.646;2023-07-31T05:54:26;100967.88;;;22.74
78961;BMP280;68362;45.970;12.646;2023-07-31T05:55:28;100964.78;;;22.81
78961;BMP280;68362;45.970;12.646;2023-07-31T05:56:30;100966.53;;;22.86
78961;BMP280;68362;45.970;12.646;2023-07-31T05:57:33;100967.59;;;22.84